sensor_id;sensor_type;location;lat;lon;timestamp;P1;durP1;ratioP1;P2;durP2;ratioP2
61617;SDS011;47518;51.776;9.370;2023-01-05T00:01:23;17.15;;;5.85;;
61617;SDS011;47518;51.776;9.370;2023-01-05T00:03:49;15.80;;;5.70;;
61617;SDS011;47518;51.776;9.370;2023-01-05T00:06:15;20.58;;;6.25;;
61617;SDS011;47518;51.776;9.370;2023-01-05T00:08:42;14.27;;;5.43;;
61617;SDS011;47518;51.776;9.370;2023-01-05T00:11:09;22.80;;;6.80;;
61617;SDS011;47518;51.776;9.370;2023-01-05T00:13:56;16.30;;;5.55;;
61617;SDS011;47518;51.776;9.370;2023-01-05T00:16:42;18.02;;;6.30;;
61617;SDS011;47518;51.776;9.370;2023-01-05T00:19:28;15.68;;;4.95;;
61617;SDS011;47518;51.776;9.370;2023-01-05T00:22:14;21.00;;;5.80;;
61617;SDS011;47518;51.776;9.370;2023-01-05T00:24:59;12.68;;;5.05;;
61617;SDS011;47518;51.776;9.370;2023-01-05T00:27:27;15.73;;;5.75;;
61617;SDS011;47518;51.776;9.370;2023-01-05T00:29:53;15.15;;;5.35;;
61617;SDS011;47518;51.776;9.370;2023-01-05T00:32:19;18.60;;;6.00;;
61617;SDS011;47518;51.776;9.370;2023-01-05T00:34:44;15.07;;;5.28;;
61617;SDS011;47518;51.776;9.370;2023-01-05T00:37:10;12.20;;;4.57;;
61617;SDS011;47518;51.776;9.370;2023-01-05T00:39:35;13.10;;;4.18;;
61617;SDS011;47518;51.776;9.370;2023-01-05T00:42:00;9.13;;;3.58;;
61617;SDS011;47518;51.776;9.370;2023-01-05T00:44:26;7.85;;;3.72;;
61617;SDS011;47518;51.776;9.370;2023-01-05T00:46:51;9.35;;;3.78;;
61617;SDS011;47518;51.776;9.370;2023-01-05T00:49:16;8.73;;;3.60;;
61617;SDS011;47518;51.776;9.370;2023-01-05T00:51:41;13.98;;;3.78;;
61617;SDS011;47518;51.776;9.370;2023-01-05T00:54:07;10.25;;;3.78;;
61617;SDS011;47518;51.776;9.370;2023-01-05T00:56:32;10.15;;;4.00;;
61617;SDS011;47518;51.776;9.370;2023-01-05T00:58:57;15.10;;;3.97;;
61617;SDS011;47518;51.776;9.370;2023-01-05T01:01:23;10.15;;;4.47;;
61617;SDS011;47518;51.776;9.370;2023-01-05T01:03:48;22.60;;;5.60;;
61617;SDS011;47518;51.776;9.370;2023-01-05T01:06:13;18.00;;;5.13;;
61617;SDS011;47518;51.776;9.370;2023-01-05T01:08:39;16.98;;;5.13;;
61617;SDS011;47518;51.776;9.370;2023-01-05T01:11:05;16.73;;;5.40;;
61617;SDS011;47518;51.776;9.370;2023-01-05T01:13:32;21.60;;;5.40;;
61617;SDS011;47518;51.776;9.370;2023-01-05T01:16:04;16.90;;;4.85;;
61617;SDS011;47518;51.776;9.370;2023-01-05T01:20:55;21.40;;;5.43;;
61617;SDS011;47518;51.776;9.370;2023-01-05T01:23:20;20.73;;;5.30;;
61617;SDS011;47518;51.776;9.370;2023-01-05T01:25:45;14.65;;;5.13;;
61617;SDS011;47518;51.776;9.370;2023-01-05T01:28:11;18.42;;;5.22;;
61617;SDS011;47518;51.776;9.370;2023-01-05T01:30:37;16.65;;;4.72;;
61617;SDS011;47518;51.776;9.370;2023-01-05T01:33:02;13.70;;;4.75;;
61617;SDS011;47518;51.776;9.370;2023-01-05T01:35:28;20.83;;;5.53;;
61617;SDS011;47518;51.776;9.370;2023-01-05T01:37:53;13.73;;;4.63;;
61617;SDS011;47518;51.776;9.370;2023-01-05T01:40:18;15.57;;;5.18;;
61617;SDS011;47518;51.776;9.370;2023-01-05T01:42:43;12.38;;;4.30;;
61617;SDS011;47518;51.776;9.370;2023-01-05T01:45:17;20.05;;;5.13;;
61617;SDS011;47518;51.776;9.370;2023-01-05T01:50:32;16.75;;;4.82;;
61617;SDS011;47518;51.776;9.370;2023-01-05T01:53:03;20.67;;;4.75;;
61617;SDS011;47518;51.776;9.370;2023-01-05T01:57:59;13.20;;;3.63;;
61617;SDS011;47518;51.776;9.370;2023-01-05T02:00:27;14.80;;;3.70;;
61617;SDS011;47518;51.776;9.370;2023-01-05T02:02:53;15.27;;;3.90;;
61617;SDS011;47518;51.776;9.370;2023-01-05T02:05:20;16.30;;;4.25;;
61617;SDS011;47518;51.776;9.370;2023-01-05T02:07:53;17.05;;;3.63;;
61617;SDS011;47518;51.776;9.370;2023-01-05T02:10:19;13.60;;;4.03;;
61617;SDS011;47518;51.776;9.370;2023-01-05T02:39:14;14.98;;;3.53;;
61617;SDS011;47518;51.776;9.370;2023-01-05T02:41:44;9.00;;;3.40;;
61617;SDS011;47518;51.776;9.370;2023-01-05T02:44:16;19.73;;;3.75;;
61617;SDS011;47518;51.776;9.370;2023-01-05T02:46:43;17.13;;;3.63;;
61617;SDS011;47518;51.776;9.370;2023-01-05T02:49:09;12.55;;;3.20;;
61617;SDS011;47518;51.776;9.370;2023-01-05T02:51:38;18.67;;;3.60;;
61617;SDS011;47518;51.776;9.370;2023-01-05T02:54:08;12.13;;;3.20;;
61617;SDS011;47518;51.776;9.370;2023-01-05T02:56:40;13.80;;;3.60;;
61617;SDS011;47518;51.776;9.370;2023-01-05T02:59:15;15.20;;;3.95;;
61617;SDS011;47518;51.776;9.370;2023-01-05T03:01:56;17.95;;;3.58;;
61617;SDS011;47518;51.776;9.370;2023-01-05T03:04:34;13.55;;;3.58;;
61617;SDS011;47518;51.776;9.370;2023-01-05T03:07:06;15.88;;;3.75;;
61617;SDS011;47518;51.776;9.370;2023-01-05T03:09:36;11.40;;;3.28;;
61617;SDS011;47518;51.776;9.370;2023-01-05T03:12:09;17.50;;;3.85;;
61617;SDS011;47518;51.776;9.370;2023-01-05T03:15:03;21.10;;;4.25;;
61617;SDS011;47518;51.776;9.370;2023-01-05T03:17:37;12.85;;;3.15;;
61617;SDS011;47518;51.776;9.370;2023-01-05T03:20:08;17.70;;;3.50;;
61617;SDS011;47518;51.776;9.370;2023-01-05T03:22:37;18.30;;;3.50;;
61617;SDS011;47518;51.776;9.370;2023-01-05T03:25:24;15.40;;;3.28;;
61617;SDS011;47518;51.776;9.370;2023-01-05T03:28:13;12.07;;;3.85;;
61617;SDS011;47518;51.776;9.370;2023-01-05T03:31:06;19.42;;;3.60;;
61617;SDS011;47518;51.776;9.370;2023-01-05T03:33:50;13.93;;;3.35;;
61617;SDS011;47518;51.776;9.370;2023-01-05T03:36:49;11.65;;;3.90;;
61617;SDS011;47518;51.776;9.370;2023-01-05T03:39:17;16.10;;;3.47;;
61617;SDS011;47518;51.776;9.370;2023-01-05T03:41:44;18.73;;;4.00;;
61617;SDS011;47518;51.776;9.370;2023-01-05T03:44:11;13.85;;;3.42;;
61617;SDS011;47518;51.776;9.370;2023-01-05T03:46:37;13.88;;;3.47;;
61617;SDS011;47518;51.776;9.370;2023-01-05T03:49:03;18.08;;;3.90;;
61617;SDS011;47518;51.776;9.370;2023-01-05T03:51:28;18.17;;;4.45;;
61617;SDS011;47518;51.776;9.370;2023-01-05T03:53:54;18.85;;;3.95;;
61617;SDS011;47518;51.776;9.370;2023-01-05T03:56:19;15.57;;;3.72;;
61617;SDS011;47518;51.776;9.370;2023-01-05T03:58:44;10.68;;;2.92;;
61617;SDS011;47518;51.776;9.370;2023-01-05T04:01:10;17.83;;;3.50;;
61617;SDS011;47518;51.776;9.370;2023-01-05T04:03:35;13.13;;;3.20;;
61617;SDS011;47518;51.776;9.370;2023-01-05T04:06:01;14.20;;;3.50;;
61617;SDS011;47518;51.776;9.370;2023-01-05T04:08:26;16.83;;;3.50;;
61617;SDS011;47518;51.776;9.370;2023-01-05T04:10:52;14.52;;;3.50;;
61617;SDS011;47518;51.776;9.370;2023-01-05T04:13:18;13.32;;;3.58;;
61617;SDS011;47518;51.776;9.370;2023-01-05T04:15:43;11.20;;;3.30;;
61617;SDS011;47518;51.776;9.370;2023-01-05T04:18:08;10.90;;;3.10;;
61617;SDS011;47518;51.776;9.370;2023-01-05T04:20:34;12.68;;;2.78;;
61617;SDS011;47518;51.776;9.370;2023-01-05T04:22:59;13.95;;;3.35;;
61617;SDS011;47518;51.776;9.370;2023-01-05T04:25:24;9.52;;;2.95;;
61617;SDS011;47518;51.776;9.370;2023-01-05T04:27:50;11.43;;;3.50;;
61617;SDS011;47518;51.776;9.370;2023-01-05T04:30:15;12.20;;;3.33;;
61617;SDS011;47518;51.776;9.370;2023-01-05T04:32:41;12.52;;;3.22;;
61617;SDS011;47518;51.776;9.370;2023-01-05T04:35:07;12.70;;;3.55;;
61617;SDS011;47518;51.776;9.370;2023-01-05T04:37:32;16.38;;;3.53;;
61617;SDS011;47518;51.776;9.370;2023-01-05T04:39:57;14.07;;;3.65;;
61617;SDS011;47518;51.776;9.370;2023-01-05T04:42:23;12.50;;;3.30;;
61617;SDS011;47518;51.776;9.370;2023-01-05T04:44:49;13.35;;;3.53;;
61617;SDS011;47518;51.776;9.370;2023-01-05T04:47:14;14.52;;;3.58;;
61617;SDS011;47518;51.776;9.370;2023-01-05T04:49:39;14.55;;;3.60;;
61617;SDS011;47518;51.776;9.370;2023-01-05T04:52:04;14.55;;;4.28;;
61617;SDS011;47518;51.776;9.370;2023-01-05T04:54:30;17.83;;;3.83;;
61617;SDS011;47518;51.776;9.370;2023-01-05T04:56:55;18.85;;;4.38;;
61617;SDS011;47518;51.776;9.370;2023-01-05T04:59:20;13.73;;;3.50;;
61617;SDS011;47518;51.776;9.370;2023-01-05T05:01:46;14.82;;;3.20;;
61617;SDS011;47518;51.776;9.370;2023-01-05T05:04:11;17.70;;;4.20;;
61617;SDS011;47518;51.776;9.370;2023-01-05T05:06:36;13.60;;;3.67;;
61617;SDS011;47518;51.776;9.370;2023-01-05T05:09:02;11.80;;;3.63;;
61617;SDS011;47518;51.776;9.370;2023-01-05T05:11:27;13.90;;;3.78;;
61617;SDS011;47518;51.776;9.370;2023-01-05T05:13:52;15.52;;;4.10;;
61617;SDS011;47518;51.776;9.370;2023-01-05T05:29:15;15.25;;;3.67;;
61617;SDS011;47518;51.776;9.370;2023-01-05T05:31:40;22.25;;;4.10;;
61617;SDS011;47518;51.776;9.370;2023-01-05T05:34:05;13.48;;;3.50;;
61617;SDS011;47518;51.776;9.370;2023-01-05T05:36:31;13.60;;;3.13;;
61617;SDS011;47518;51.776;9.370;2023-01-05T05:38:56;16.17;;;3.60;;
61617;SDS011;47518;51.776;9.370;2023-01-05T05:41:22;13.82;;;3.40;;
61617;SDS011;47518;51.776;9.370;2023-01-05T05:43:48;15.10;;;3.40;;
61617;SDS011;47518;51.776;9.370;2023-01-05T05:46:14;12.90;;;3.40;;
61617;SDS011;47518;51.776;9.370;2023-01-05T05:48:39;19.20;;;3.60;;
61617;SDS011;47518;51.776;9.370;2023-01-05T05:51:04;14.32;;;3.33;;
61617;SDS011;47518;51.776;9.370;2023-01-05T05:53:30;12.05;;;4.50;;
61617;SDS011;47518;51.776;9.370;2023-01-05T05:55:55;14.13;;;3.45;;
61617;SDS011;47518;51.776;9.370;2023-01-05T05:58:20;12.63;;;3.42;;
61617;SDS011;47518;51.776;9.370;2023-01-05T06:00:46;11.80;;;3.55;;
61617;SDS011;47518;51.776;9.370;2023-01-05T06:03:11;10.95;;;3.53;;
61617;SDS011;47518;51.776;9.370;2023-01-05T06:05:37;19.88;;;4.35;;
61617;SDS011;47518;51.776;9.370;2023-01-05T06:08:02;14.00;;;4.63;;
61617;SDS011;47518;51.776;9.370;2023-01-05T06:10:27;13.70;;;3.40;;
61617;SDS011;47518;51.776;9.370;2023-01-05T06:12:53;11.15;;;3.38;;
61617;SDS011;47518;51.776;9.370;2023-01-05T06:15:19;16.33;;;3.45;;
61617;SDS011;47518;51.776;9.370;2023-01-05T06:17:46;12.25;;;3.40;;
61617;SDS011;47518;51.776;9.370;2023-01-05T06:20:12;11.70;;;4.07;;
61617;SDS011;47518;51.776;9.370;2023-01-05T06:22:38;14.27;;;4.25;;
61617;SDS011;47518;51.776;9.370;2023-01-05T06:25:04;12.73;;;3.38;;
61617;SDS011;47518;51.776;9.370;2023-01-05T06:27:30;16.15;;;3.83;;
61617;SDS011;47518;51.776;9.370;2023-01-05T06:29:55;11.55;;;3.65;;
61617;SDS011;47518;51.776;9.370;2023-01-05T06:32:20;11.65;;;3.53;;
61617;SDS011;47518;51.776;9.370;2023-01-05T06:34:46;16.77;;;3.60;;
61617;SDS011;47518;51.776;9.370;2023-01-05T06:37:11;15.68;;;4.22;;
61617;SDS011;47518;51.776;9.370;2023-01-05T06:39:36;14.30;;;3.97;;
61617;SDS011;47518;51.776;9.370;2023-01-05T06:42:02;11.80;;;3.97;;
61617;SDS011;47518;51.776;9.370;2023-01-05T06:44:27;12.27;;;3.60;;
61617;SDS011;47518;51.776;9.370;2023-01-05T06:46:52;13.40;;;3.67;;
61617;SDS011;47518;51.776;9.370;2023-01-05T06:49:18;11.18;;;3.30;;
61617;SDS011;47518;51.776;9.370;2023-01-05T06:51:43;12.80;;;3.53;;
61617;SDS011;47518;51.776;9.370;2023-01-05T06:54:08;9.50;;;3.03;;
61617;SDS011;47518;51.776;9.370;2023-01-05T06:56:35;10.65;;;3.33;;
61617;SDS011;47518;51.776;9.370;2023-01-05T06:59:00;8.77;;;3.58;;
61617;SDS011;47518;51.776;9.370;2023-01-05T07:01:25;9.10;;;3.20;;
61617;SDS011;47518;51.776;9.370;2023-01-05T07:03:50;5.95;;;2.83;;
61617;SDS011;47518;51.776;9.370;2023-01-05T07:06:16;9.30;;;3.40;;
61617;SDS011;47518;51.776;9.370;2023-01-05T07:08:41;7.82;;;2.90;;
61617;SDS011;47518;51.776;9.370;2023-01-05T07:11:07;7.05;;;3.00;;
61617;SDS011;47518;51.776;9.370;2023-01-05T07:13:32;9.30;;;3.22;;
61617;SDS011;47518;51.776;9.370;2023-01-05T07:15:57;8.93;;;3.10;;
61617;SDS011;47518;51.776;9.370;2023-01-05T07:18:23;7.43;;;2.88;;
61617;SDS011;47518;51.776;9.370;2023-01-05T07:20:48;9.68;;;3.30;;
61617;SDS011;47518;51.776;9.370;2023-01-05T07:23:13;12.45;;;3.58;;
61617;SDS011;47518;51.776;9.370;2023-01-05T07:25:39;16.25;;;3.83;;
61617;SDS011;47518;51.776;9.370;2023-01-05T07:28:04;10.32;;;3.42;;
61617;SDS011;47518;51.776;9.370;2023-01-05T07:30:29;9.15;;;3.40;;
61617;SDS011;47518;51.776;9.370;2023-01-05T07:32:58;16.42;;;4.47;;
61617;SDS011;47518;51.776;9.370;2023-01-05T07:35:23;9.00;;;3.45;;
61617;SDS011;47518;51.776;9.370;2023-01-05T07:37:49;9.98;;;3.83;;
61617;SDS011;47518;51.776;9.370;2023-01-05T07:40:14;12.80;;;3.70;;
61617;SDS011;47518;51.776;9.370;2023-01-05T07:42:39;12.60;;;3.88;;
61617;SDS011;47518;51.776;9.370;2023-01-05T07:45:05;11.73;;;3.60;;
61617;SDS011;47518;51.776;9.370;2023-01-05T07:47:31;13.00;;;3.92;;
61617;SDS011;47518;51.776;9.370;2023-01-05T07:49:56;9.30;;;3.78;;
61617;SDS011;47518;51.776;9.370;2023-01-05T07:52:21;9.88;;;3.55;;
61617;SDS011;47518;51.776;9.370;2023-01-05T07:54:47;12.40;;;3.65;;
61617;SDS011;47518;51.776;9.370;2023-01-05T07:57:12;13.65;;;3.97;;
61617;SDS011;47518;51.776;9.370;2023-01-05T07:59:37;10.43;;;3.30;;
61617;SDS011;47518;51.776;9.370;2023-01-05T08:02:03;11.88;;;4.03;;
61617;SDS011;47518;51.776;9.370;2023-01-05T08:04:28;16.77;;;4.18;;
61617;SDS011;47518;51.776;9.370;2023-01-05T08:06:53;9.13;;;3.55;;
61617;SDS011;47518;51.776;9.370;2023-01-05T08:09:20;12.57;;;3.75;;
61617;SDS011;47518;51.776;9.370;2023-01-05T08:12:05;11.45;;;4.03;;
61617;SDS011;47518;51.776;9.370;2023-01-05T08:14:31;12.43;;;3.20;;
61617;SDS011;47518;51.776;9.370;2023-01-05T08:16:56;9.23;;;3.42;;
61617;SDS011;47518;51.776;9.370;2023-01-05T08:19:21;10.65;;;3.35;;
61617;SDS011;47518;51.776;9.370;2023-01-05T08:21:47;9.25;;;3.22;;
61617;SDS011;47518;51.776;9.370;2023-01-05T08:24:12;15.07;;;4.45;;
61617;SDS011;47518;51.776;9.370;2023-01-05T08:26:38;12.68;;;3.53;;
61617;SDS011;47518;51.776;9.370;2023-01-05T08:29:03;7.85;;;3.13;;
61617;SDS011;47518;51.776;9.370;2023-01-05T08:31:29;10.95;;;3.47;;
61617;SDS011;47518;51.776;9.370;2023-01-05T08:34:01;9.52;;;3.78;;
61617;SDS011;47518;51.776;9.370;2023-01-05T08:36:27;9.63;;;3.20;;
61617;SDS011;47518;51.776;9.370;2023-01-05T08:38:55;6.78;;;3.30;;
61617;SDS011;47518;51.776;9.370;2023-01-05T08:41:22;7.53;;;3.20;;
61617;SDS011;47518;51.776;9.370;2023-01-05T08:43:50;7.47;;;2.95;;
61617;SDS011;47518;51.776;9.370;2023-01-05T08:46:18;6.63;;;2.67;;
61617;SDS011;47518;51.776;9.370;2023-01-05T08:48:48;6.72;;;2.90;;
61617;SDS011;47518;51.776;9.370;2023-01-05T08:51:15;9.93;;;3.03;;
61617;SDS011;47518;51.776;9.370;2023-01-05T08:53:40;7.07;;;3.00;;
61617;SDS011;47518;51.776;9.370;2023-01-05T08:56:06;9.70;;;2.97;;
61617;SDS011;47518;51.776;9.370;2023-01-05T08:58:31;9.70;;;3.50;;
61617;SDS011;47518;51.776;9.370;2023-01-05T09:00:57;11.60;;;3.60;;
61617;SDS011;47518;51.776;9.370;2023-01-05T09:03:22;12.25;;;3.47;;
61617;SDS011;47518;51.776;9.370;2023-01-05T09:05:50;12.27;;;3.67;;
61617;SDS011;47518;51.776;9.370;2023-01-05T09:08:17;13.23;;;3.45;;
61617;SDS011;47518;51.776;9.370;2023-01-05T09:10:42;11.38;;;3.70;;
61617;SDS011;47518;51.776;9.370;2023-01-05T09:13:07;9.35;;;3.50;;
61617;SDS011;47518;51.776;9.370;2023-01-05T09:15:33;10.88;;;3.38;;
61617;SDS011;47518;51.776;9.370;2023-01-05T09:17:59;12.30;;;3.75;;
61617;SDS011;47518;51.776;9.370;2023-01-05T09:20:24;11.02;;;3.40;;
61617;SDS011;47518;51.776;9.370;2023-01-05T09:22:49;9.65;;;3.72;;
61617;SDS011;47518;51.776;9.370;2023-01-05T09:25:15;12.68;;;3.90;;
61617;SDS011;47518;51.776;9.370;2023-01-05T09:27:40;9.57;;;3.30;;
61617;SDS011;47518;51.776;9.370;2023-01-05T09:30:07;14.18;;;4.50;;
61617;SDS011;47518;51.776;9.370;2023-01-05T09:32:32;11.27;;;4.38;;
61617;SDS011;47518;51.776;9.370;2023-01-05T09:35:00;12.02;;;4.10;;
61617;SDS011;47518;51.776;9.370;2023-01-05T09:37:26;9.52;;;3.90;;
61617;SDS011;47518;51.776;9.370;2023-01-05T09:39:51;11.50;;;4.25;;
61617;SDS011;47518;51.776;9.370;2023-01-05T09:42:18;10.70;;;3.85;;
61617;SDS011;47518;51.776;9.370;2023-01-05T09:44:47;13.38;;;4.65;;
61617;SDS011;47518;51.776;9.370;2023-01-05T09:50:06;15.43;;;4.75;;
61617;SDS011;47518;51.776;9.370;2023-01-05T09:52:40;9.77;;;4.00;;
61617;SDS011;47518;51.776;9.370;2023-01-05T09:55:11;9.02;;;4.03;;
61617;SDS011;47518;51.776;9.370;2023-01-05T09:57:40;10.48;;;3.95;;
61617;SDS011;47518;51.776;9.370;2023-01-05T10:00:09;14.85;;;3.90;;
61617;SDS011;47518;51.776;9.370;2023-01-05T10:02:49;13.13;;;3.95;;
61617;SDS011;47518;51.776;9.370;2023-01-05T10:05:17;14.60;;;4.35;;
61617;SDS011;47518;51.776;9.370;2023-01-05T10:07:49;11.43;;;3.60;;
61617;SDS011;47518;51.776;9.370;2023-01-05T10:13:16;10.27;;;3.97;;
61617;SDS011;47518;51.776;9.370;2023-01-05T10:15:49;14.50;;;3.78;;
61617;SDS011;47518;51.776;9.370;2023-01-05T10:18:20;14.32;;;3.97;;
61617;SDS011;47518;51.776;9.370;2023-01-05T10:20:53;11.93;;;4.03;;
61617;SDS011;47518;51.776;9.370;2023-01-05T10:34:06;9.68;;;3.65;;
61617;SDS011;47518;51.776;9.370;2023-01-05T10:37:02;7.97;;;3.10;;
61617;SDS011;47518;51.776;9.370;2023-01-05T10:50:17;11.10;;;3.60;;
61617;SDS011;47518;51.776;9.370;2023-01-05T10:52:51;9.68;;;3.72;;
61617;SDS011;47518;51.776;9.370;2023-01-05T10:55:18;9.98;;;3.72;;
61617;SDS011;47518;51.776;9.370;2023-01-05T10:57:44;9.00;;;3.35;;
61617;SDS011;47518;51.776;9.370;2023-01-05T11:00:13;12.30;;;4.07;;
61617;SDS011;47518;51.776;9.370;2023-01-05T11:02:42;12.52;;;3.60;;
61617;SDS011;47518;51.776;9.370;2023-01-05T11:05:19;11.10;;;3.70;;
61617;SDS011;47518;51.776;9.370;2023-01-05T11:07:50;13.25;;;3.85;;
61617;SDS011;47518;51.776;9.370;2023-01-05T11:10:33;10.52;;;3.35;;
61617;SDS011;47518;51.776;9.370;2023-01-05T11:13:02;10.38;;;3.72;;
61617;SDS011;47518;51.776;9.370;2023-01-05T11:15:43;11.02;;;3.97;;
61617;SDS011;47518;51.776;9.370;2023-01-05T11:34:46;12.20;;;3.40;;
61617;SDS011;47518;51.776;9.370;2023-01-05T11:37:29;9.45;;;3.22;;
61617;SDS011;47518;51.776;9.370;2023-01-05T11:39:56;9.40;;;3.25;;
61617;SDS011;47518;51.776;9.370;2023-01-05T11:45:21;6.38;;;3.13;;
61617;SDS011;47518;51.776;9.370;2023-01-05T11:47:49;9.13;;;3.30;;
61617;SDS011;47518;51.776;9.370;2023-01-05T11:50:20;5.47;;;2.92;;
61617;SDS011;47518;51.776;9.370;2023-01-05T11:52:50;7.07;;;3.03;;
61617;SDS011;47518;51.776;9.370;2023-01-05T12:03:58;5.18;;;3.08;;
61617;SDS011;47518;51.776;9.370;2023-01-05T12:09:23;5.47;;;2.60;;
61617;SDS011;47518;51.776;9.370;2023-01-05T12:14:43;5.75;;;2.80;;
61617;SDS011;47518;51.776;9.370;2023-01-05T12:26:48;5.65;;;2.67;;
61617;SDS011;47518;51.776;9.370;2023-01-05T12:35:40;5.80;;;2.90;;
61617;SDS011;47518;51.776;9.370;2023-01-05T12:41:06;7.88;;;3.00;;
61617;SDS011;47518;51.776;9.370;2023-01-05T12:49:15;6.82;;;3.13;;
61617;SDS011;47518;51.776;9.370;2023-01-05T12:51:47;9.88;;;2.80;;
61617;SDS011;47518;51.776;9.370;2023-01-05T12:57:15;9.10;;;2.90;;
61617;SDS011;47518;51.776;9.370;2023-01-05T13:05:17;6.95;;;3.00;;
61617;SDS011;47518;51.776;9.370;2023-01-05T13:08:06;6.28;;;2.90;;
61617;SDS011;47518;51.776;9.370;2023-01-05T13:13:36;7.10;;;3.00;;
61617;SDS011;47518;51.776;9.370;2023-01-05T13:16:21;7.63;;;2.95;;
61617;SDS011;47518;51.776;9.370;2023-01-05T13:18:52;11.07;;;3.20;;
61617;SDS011;47518;51.776;9.370;2023-01-05T13:21:21;6.05;;;3.20;;
61617;SDS011;47518;51.776;9.370;2023-01-05T13:26:29;8.68;;;3.13;;
61617;SDS011;47518;51.776;9.370;2023-01-05T13:28:55;9.40;;;3.28;;
61617;SDS011;47518;51.776;9.370;2023-01-05T13:34:13;7.28;;;3.00;;
61617;SDS011;47518;51.776;9.370;2023-01-05T13:42:59;8.60;;;3.00;;
61617;SDS011;47518;51.776;9.370;2023-01-05T13:51:33;5.60;;;3.00;;
61617;SDS011;47518;51.776;9.370;2023-01-05T13:57:29;6.28;;;3.20;;
61617;SDS011;47518;51.776;9.370;2023-01-05T14:00:02;7.13;;;3.10;;
61617;SDS011;47518;51.776;9.370;2023-01-05T14:05:31;7.90;;;3.30;;
61617;SDS011;47518;51.776;9.370;2023-01-05T14:08:00;9.18;;;3.50;;
61617;SDS011;47518;51.776;9.370;2023-01-05T14:10:29;8.82;;;3.67;;
61617;SDS011;47518;51.776;9.370;2023-01-05T14:12:55;9.00;;;3.80;;
61617;SDS011;47518;51.776;9.370;2023-01-05T14:18:04;9.80;;;4.13;;
61617;SDS011;47518;51.776;9.370;2023-01-05T14:20:47;12.80;;;4.43;;
61617;SDS011;47518;51.776;9.370;2023-01-05T14:26:12;13.52;;;4.20;;
61617;SDS011;47518;51.776;9.370;2023-01-05T14:28:40;10.18;;;4.20;;
61617;SDS011;47518;51.776;9.370;2023-01-05T14:33:51;10.95;;;4.18;;
61617;SDS011;47518;51.776;9.370;2023-01-05T14:36:46;12.48;;;4.95;;
61617;SDS011;47518;51.776;9.370;2023-01-05T14:39:24;13.75;;;5.57;;
61617;SDS011;47518;51.776;9.370;2023-01-05T14:41:58;13.60;;;6.07;;
61617;SDS011;47518;51.776;9.370;2023-01-05T14:44:44;12.15;;;5.32;;
61617;SDS011;47518;51.776;9.370;2023-01-05T14:47:13;14.40;;;5.85;;
61617;SDS011;47518;51.776;9.370;2023-01-05T14:49:42;15.07;;;5.68;;
61617;SDS011;47518;51.776;9.370;2023-01-05T14:52:17;13.43;;;5.03;;
61617;SDS011;47518;51.776;9.370;2023-01-05T14:57:37;13.93;;;5.40;;
61617;SDS011;47518;51.776;9.370;2023-01-05T15:00:14;13.98;;;5.65;;
61617;SDS011;47518;51.776;9.370;2023-01-05T15:02:47;19.90;;;7.13;;
61617;SDS011;47518;51.776;9.370;2023-01-05T15:05:18;18.70;;;6.13;;
61617;SDS011;47518;51.776;9.370;2023-01-05T15:27:48;13.30;;;4.18;;
61617;SDS011;47518;51.776;9.370;2023-01-05T15:30:41;9.75;;;4.15;;
61617;SDS011;47518;51.776;9.370;2023-01-05T15:33:23;11.95;;;4.30;;
61617;SDS011;47518;51.776;9.370;2023-01-05T15:35:59;11.27;;;4.03;;
61617;SDS011;47518;51.776;9.370;2023-01-05T15:38:27;11.30;;;4.20;;
61617;SDS011;47518;51.776;9.370;2023-01-05T15:40:58;12.50;;;4.57;;
61617;SDS011;47518;51.776;9.370;2023-01-05T15:43:29;10.30;;;3.90;;
61617;SDS011;47518;51.776;9.370;2023-01-05T15:45:56;13.30;;;4.90;;
61617;SDS011;47518;51.776;9.370;2023-01-05T15:48:25;11.23;;;4.50;;
61617;SDS011;47518;51.776;9.370;2023-01-05T15:50:55;13.15;;;4.18;;
61617;SDS011;47518;51.776;9.370;2023-01-05T15:53:25;12.07;;;4.80;;
61617;SDS011;47518;51.776;9.370;2023-01-05T15:55:54;12.85;;;4.50;;
61617;SDS011;47518;51.776;9.370;2023-01-05T15:58:21;12.43;;;4.40;;
61617;SDS011;47518;51.776;9.370;2023-01-05T16:03:36;11.65;;;4.25;;
61617;SDS011;47518;51.776;9.370;2023-01-05T16:06:04;10.70;;;4.30;;
61617;SDS011;47518;51.776;9.370;2023-01-05T16:08:34;15.05;;;4.97;;
61617;SDS011;47518;51.776;9.370;2023-01-05T16:11:05;12.27;;;4.32;;
61617;SDS011;47518;51.776;9.370;2023-01-05T16:13:37;17.60;;;5.45;;
61617;SDS011;47518;51.776;9.370;2023-01-05T16:16:12;12.98;;;4.32;;
61617;SDS011;47518;51.776;9.370;2023-01-05T16:18:43;12.88;;;4.20;;
61617;SDS011;47518;51.776;9.370;2023-01-05T16:21:19;17.52;;;4.95;;
61617;SDS011;47518;51.776;9.370;2023-01-05T16:23:55;12.48;;;4.10;;
61617;SDS011;47518;51.776;9.370;2023-01-05T16:26:25;13.35;;;4.47;;
61617;SDS011;47518;51.776;9.370;2023-01-05T16:28:50;14.10;;;5.15;;
61617;SDS011;47518;51.776;9.370;2023-01-05T16:31:32;12.50;;;4.82;;
61617;SDS011;47518;51.776;9.370;2023-01-05T16:34:02;12.10;;;4.47;;
61617;SDS011;47518;51.776;9.370;2023-01-05T16:36:30;13.30;;;5.05;;
61617;SDS011;47518;51.776;9.370;2023-01-05T16:39:12;15.63;;;4.55;;
61617;SDS011;47518;51.776;9.370;2023-01-05T16:42:01;17.30;;;4.93;;
61617;SDS011;47518;51.776;9.370;2023-01-05T16:44:51;15.88;;;5.07;;
61617;SDS011;47518;51.776;9.370;2023-01-05T16:47:29;11.88;;;4.38;;
61617;SDS011;47518;51.776;9.370;2023-01-05T16:49:59;13.15;;;4.82;;
61617;SDS011;47518;51.776;9.370;2023-01-05T16:52:24;17.25;;;5.45;;
61617;SDS011;47518;51.776;9.370;2023-01-05T16:55:12;12.55;;;5.00;;
61617;SDS011;47518;51.776;9.370;2023-01-05T16:57:43;14.70;;;5.35;;
61617;SDS011;47518;51.776;9.370;2023-01-05T17:03:27;17.13;;;6.18;;
61617;SDS011;47518;51.776;9.370;2023-01-05T17:05:55;17.58;;;5.88;;
61617;SDS011;47518;51.776;9.370;2023-01-05T17:08:22;18.63;;;6.63;;
61617;SDS011;47518;51.776;9.370;2023-01-05T17:10:51;13.40;;;6.32;;
61617;SDS011;47518;51.776;9.370;2023-01-05T17:13:21;22.92;;;6.78;;
61617;SDS011;47518;51.776;9.370;2023-01-05T17:15:49;14.80;;;6.80;;
61617;SDS011;47518;51.776;9.370;2023-01-05T17:18:18;14.77;;;5.88;;
61617;SDS011;47518;51.776;9.370;2023-01-05T17:20:59;13.77;;;5.60;;
61617;SDS011;47518;51.776;9.370;2023-01-05T17:23:31;15.23;;;5.57;;
61617;SDS011;47518;51.776;9.370;2023-01-05T17:26:02;13.07;;;5.78;;
61617;SDS011;47518;51.776;9.370;2023-01-05T17:28:31;13.77;;;5.88;;
61617;SDS011;47518;51.776;9.370;2023-01-05T17:30:56;12.00;;;6.57;;
61617;SDS011;47518;51.776;9.370;2023-01-05T17:33:22;16.50;;;6.28;;
61617;SDS011;47518;51.776;9.370;2023-01-05T17:35:47;15.90;;;6.57;;
61617;SDS011;47518;51.776;9.370;2023-01-05T17:38:13;11.88;;;6.47;;
61617;SDS011;47518;51.776;9.370;2023-01-05T17:40:39;12.43;;;6.13;;
61617;SDS011;47518;51.776;9.370;2023-01-05T17:43:05;12.75;;;6.53;;
61617;SDS011;47518;51.776;9.370;2023-01-05T17:45:31;18.83;;;6.88;;
61617;SDS011;47518;51.776;9.370;2023-01-05T17:47:57;18.98;;;7.45;;
61617;SDS011;47518;51.776;9.370;2023-01-05T17:50:24;15.05;;;7.18;;
61617;SDS011;47518;51.776;9.370;2023-01-05T17:52:54;15.93;;;7.32;;
61617;SDS011;47518;51.776;9.370;2023-01-05T17:55:21;16.50;;;7.35;;
61617;SDS011;47518;51.776;9.370;2023-01-05T17:57:47;20.90;;;7.82;;
61617;SDS011;47518;51.776;9.370;2023-01-05T18:00:14;17.42;;;7.72;;
61617;SDS011;47518;51.776;9.370;2023-01-05T18:02:41;21.95;;;9.70;;
61617;SDS011;47518;51.776;9.370;2023-01-05T18:05:07;20.00;;;8.30;;
61617;SDS011;47518;51.776;9.370;2023-01-05T18:07:34;18.65;;;8.10;;
61617;SDS011;47518;51.776;9.370;2023-01-05T18:10:00;17.58;;;8.13;;
61617;SDS011;47518;51.776;9.370;2023-01-05T18:12:27;20.42;;;9.23;;
61617;SDS011;47518;51.776;9.370;2023-01-05T18:14:52;23.25;;;9.50;;